sensor_id;sensor_type;location;lat;lon;timestamp;temperature;humidity
17954;DHT22;9102;53.548;9.926;2023-04-16T00:01:31;8.40;99.90
17954;DHT22;9102;53.548;9.926;2023-04-16T00:04:00;8.40;99.90
17954;DHT22;9102;53.548;9.926;2023-04-16T00:06:27;8.30;99.90
17954;DHT22;9102;53.548;9.926;2023-04-16T00:08:54;8.30;99.90
17954;DHT22;9102;53.548;9.926;2023-04-16T00:11:21;8.30;99.90
17954;DHT22;9102;53.548;9.926;2023-04-16T00:13:48;8.30;99.90
17954;DHT22;9102;53.548;9.926;2023-04-16T00:16:14;8.20;99.90
17954;DHT22;9102;53.548;9.926;2023-04-16T00:18:41;8.20;99.90
17954;DHT22;9102;53.548;9.926;2023-04-16T00:21:10;8.20;99.90
17954;DHT22;9102;53.548;9.926;2023-04-16T00:23:37;8.10;99.90
17954;DHT22;9102;53.548;9.926;2023-04-16T00:26:04;8.10;99.90
17954;DHT22;9102;53.548;9.926;2023-04-16T00:28:30;8.10;99.90
17954;DHT22;9102;53.548;9.926;2023-04-16T00:30:57;8.10;99.90
17954;DHT22;9102;53.548;9.926;2023-04-16T00:33:24;8.10;99.90
17954;DHT22;9102;53.548;9.926;2023-04-16T00:35:51;8.10;99.90
17954;DHT22;9102;53.548;9.926;2023-04-16T00:38:19;8.00;99.90
17954;DHT22;9102;53.548;9.926;2023-04-16T00:40:46;8.00;99.90
17954;DHT22;9102;53.548;9.926;2023-04-16T00:43:20;8.00;99.90
17954;DHT22;9102;53.548;9.926;2023-04-16T00:45:49;8.00;99.90
17954;DHT22;9102;53.548;9.926;2023-04-16T00:48:17;8.00;99.90
17954;DHT22;9102;53.548;9.926;2023-04-16T00:50:44;8.00;99.90
17954;DHT22;9102;53.548;9.926;2023-04-16T00:53:11;8.00;99.90
17954;DHT22;9102;53.548;9.926;2023-04-16T00:55:49;8.00;99.90
17954;DHT22;9102;53.548;9.926;2023-04-16T00:58:16;8.00;99.90
17954;DHT22;9102;53.548;9.926;2023-04-16T01:00:42;8.00;99.90
17954;DHT22;9102;53.548;9.926;2023-04-16T01:03:10;8.00;99.90
17954;DHT22;9102;53.548;9.926;2023-04-16T01:05:37;8.00;99.90
17954;DHT22;9102;53.548;9.926;2023-04-16T01:08:05;8.10;99.90
17954;DHT22;9102;53.548;9.926;2023-04-16T01:10:32;8.10;99.90
17954;DHT22;9102;53.548;9.926;2023-04-16T01:13:01;8.10;99.90
17954;DHT22;9102;53.548;9.926;2023-04-16T01:15:28;8.10;99.90
17954;DHT22;9102;53.548;9.926;2023-04-16T01:17:55;8.10;99.90
17954;DHT22;9102;53.548;9.926;2023-04-16T01:20:22;8.10;99.90
17954;DHT22;9102;53.548;9.926;2023-04-16T01:22:50;8.10;99.90
17954;DHT22;9102;53.548;9.926;2023-04-16T01:25:17;8.10;99.90
17954;DHT22;9102;53.548;9.926;2023-04-16T01:27:44;8.10;99.90
17954;DHT22;9102;53.548;9.926;2023-04-16T01:30:14;8.10;99.90
17954;DHT22;9102;53.548;9.926;2023-04-16T01:32:41;8.10;99.90
17954;DHT22;9102;53.548;9.926;2023-04-16T01:35:08;8.10;99.90
17954;DHT22;9102;53.548;9.926;2023-04-16T01:37:35;8.20;99.90
17954;DHT22;9102;53.548;9.926;2023-04-16T01:40:04;8.20;99.90
17954;DHT22;9102;53.548;9.926;2023-04-16T01:42:31;8.20;99.90
17954;DHT22;9102;53.548;9.926;2023-04-16T01:44:58;8.20;99.90
17954;DHT22;9102;53.548;9.926;2023-04-16T01:47:25;8.20;99.90
17954;DHT22;9102;53.548;9.926;2023-04-16T01:49:52;8.20;99.90
17954;DHT22;9102;53.548;9.926;2023-04-16T01:52:19;8.10;99.90
17954;DHT22;9102;53.548;9.926;2023-04-16T01:54:46;8.20;99.90
17954;DHT22;9102;53.548;9.926;2023-04-16T01:57:14;8.20;99.90
17954;DHT22;9102;53.548;9.926;2023-04-16T01:59:41;8.30;99.90
17954;DHT22;9102;53.548;9.926;2023-04-16T02:02:09;8.30;99.90
17954;DHT22;9102;53.548;9.926;2023-04-16T02:04:36;8.40;99.90
17954;DHT22;9102;53.548;9.926;2023-04-16T02:07:03;8.30;99.90
17954;DHT22;9102;53.548;9.926;2023-04-16T02:09:31;8.40;99.90
17954;DHT22;9102;53.548;9.926;2023-04-16T02:11:59;8.40;99.90
17954;DHT22;9102;53.548;9.926;2023-04-16T02:14:28;8.40;99.90
17954;DHT22;9102;53.548;9.926;2023-04-16T02:16:55;8.30;99.90
17954;DHT22;9102;53.548;9.926;2023-04-16T02:19:23;8.40;99.90
17954;DHT22;9102;53.548;9.926;2023-04-16T02:21:50;8.40;99.90
17954;DHT22;9102;53.548;9.926;2023-04-16T02:24:17;8.40;99.90
17954;DHT22;9102;53.548;9.926;2023-04-16T02:26:44;8.40;99.90
17954;DHT22;9102;53.548;9.926;2023-04-16T02:29:11;8.40;99.90
17954;DHT22;9102;53.548;9.926;2023-04-16T02:31:39;8.40;99.90
17954;DHT22;9102;53.548;9.926;2023-04-16T02:34:06;8.40;99.90
17954;DHT22;9102;53.548;9.926;2023-04-16T02:36:33;8.40;99.90
17954;DHT22;9102;53.548;9.926;2023-04-16T02:38:59;8.40;99.90
17954;DHT22;9102;53.548;9.926;2023-04-16T02:41:26;8.40;99.90
17954;DHT22;9102;53.548;9.926;2023-04-16T02:43:55;8.40;99.90
17954;DHT22;9102;53.548;9.926;2023-04-16T02:46:22;8.40;99.90
17954;DHT22;9102;53.548;9.926;2023-04-16T02:48:50;8.40;99.90
17954;DHT22;9102;53.548;9.926;2023-04-16T02:51:17;8.50;99.90
17954;DHT22;9102;53.548;9.926;2023-04-16T02:53:44;8.50;99.90
17954;DHT22;9102;53.548;9.926;2023-04-16T02:56:11;8.40;99.90
17954;DHT22;9102;53.548;9.926;2023-04-16T02:58:38;8.50;99.90
17954;DHT22;9102;53.548;9.926;2023-04-16T03:01:05;8.40;99.90
17954;DHT22;9102;53.548;9.926;2023-04-16T03:03:32;8.40;99.90
17954;DHT22;9102;53.548;9.926;2023-04-16T03:06:00;8.50;99.90
17954;DHT22;9102;53.548;9.926;2023-04-16T03:08:27;8.50;99.90
17954;DHT22;9102;53.548;9.926;2023-04-16T03:10:55;8.50;99.90
17954;DHT22;9102;53.548;9.926;2023-04-16T03:13:24;8.40;99.90
17954;DHT22;9102;53.548;9.926;2023-04-16T03:15:51;8.50;99.90
17954;DHT22;9102;53.548;9.926;2023-04-16T03:18:18;8.40;99.90
17954;DHT22;9102;53.548;9.926;2023-04-16T03:20:50;8.40;99.90
17954;DHT22;9102;53.548;9.926;2023-04-16T03:23:19;8.40;99.90
17954;DHT22;9102;53.548;9.926;2023-04-16T03:25:46;8.50;99.90
17954;DHT22;9102;53.548;9.926;2023-04-16T03:28:12;8.40;99.90
17954;DHT22;9102;53.548;9.926;2023-04-16T03:30:39;8.50;99.90
17954;DHT22;9102;53.548;9.926;2023-04-16T03:33:06;8.50;99.90
17954;DHT22;9102;53.548;9.926;2023-04-16T03:35:33;8.50;99.90
17954;DHT22;9102;53.548;9.926;2023-04-16T03:38:00;8.50;99.90
17954;DHT22;9102;53.548;9.926;2023-04-16T03:40:28;8.50;99.90
17954;DHT22;9102;53.548;9.926;2023-04-16T03:42:55;8.50;99.90
17954;DHT22;9102;53.548;9.926;2023-04-16T03:45:22;8.50;99.90
17954;DHT22;9102;53.548;9.926;2023-04-16T03:47:49;8.50;99.90
17954;DHT22;9102;53.548;9.926;2023-04-16T03:50:17;8.50;99.90
17954;DHT22;9102;53.548;9.926;2023-04-16T03:52:44;8.50;99.90
17954;DHT22;9102;53.548;9.926;2023-04-16T03:55:11;8.60;99.90
17954;DHT22;9102;53.548;9.926;2023-04-16T03:57:40;8.50;99.90
17954;DHT22;9102;53.548;9.926;2023-04-16T04:00:07;8.60;99.90
17954;DHT22;9102;53.548;9.926;2023-04-16T04:02:34;8.60;99.90
17954;DHT22;9102;53.548;9.926;2023-04-16T04:05:02;8.50;99.90
17954;DHT22;9102;53.548;9.926;2023-04-16T04:07:28;8.60;99.90
17954;DHT22;9102;53.548;9.926;2023-04-16T04:09:55;8.60;99.90
17954;DHT22;9102;53.548;9.926;2023-04-16T04:12:22;8.60;99.90
17954;DHT22;9102;53.548;9.926;2023-04-16T04:14:51;8.60;99.90
17954;DHT22;9102;53.548;9.926;2023-04-16T04:17:17;8.60;99.90
17954;DHT22;9102;53.548;9.926;2023-04-16T04:19:44;8.60;99.90
17954;DHT22;9102;53.548;9.926;2023-04-16T04:22:11;8.60;99.90
17954;DHT22;9102;53.548;9.926;2023-04-16T04:24:38;8.60;99.90
17954;DHT22;9102;53.548;9.926;2023-04-16T04:27:05;8.60;99.90
17954;DHT22;9102;53.548;9.926;2023-04-16T04:29:32;8.60;99.90
17954;DHT22;9102;53.548;9.926;2023-04-16T04:32:01;8.60;99.90
17954;DHT22;9102;53.548;9.926;2023-04-16T04:34:28;8.60;99.90
17954;DHT22;9102;53.548;9.926;2023-04-16T04:36:55;8.60;99.90
17954;DHT22;9102;53.548;9.926;2023-04-16T04:39:22;8.60;99.90
17954;DHT22;9102;53.548;9.926;2023-04-16T04:41:49;8.60;99.90
17954;DHT22;9102;53.548;9.926;2023-04-16T04:44:16;8.80;99.90
17954;DHT22;9102;53.548;9.926;2023-04-16T04:46:42;8.70;99.90
17954;DHT22;9102;53.548;9.926;2023-04-16T04:49:11;8.60;99.90
17954;DHT22;9102;53.548;9.926;2023-04-16T04:51:38;8.70;99.90
17954;DHT22;9102;53.548;9.926;2023-04-16T04:54:05;8.60;99.90
17954;DHT22;9102;53.548;9.926;2023-04-16T04:56:32;8.60;99.90
17954;DHT22;9102;53.548;9.926;2023-04-16T04:58:59;8.70;99.90
17954;DHT22;9102;53.548;9.926;2023-04-16T05:01:26;8.70;99.90
17954;DHT22;9102;53.548;9.926;2023-04-16T05:03:54;8.70;99.90
17954;DHT22;9102;53.548;9.926;2023-04-16T05:06:22;8.60;99.90
17954;DHT22;9102;53.548;9.926;2023-04-16T05:08:49;8.70;99.90
17954;DHT22;9102;53.548;9.926;2023-04-16T05:11:15;8.70;99.90
17954;DHT22;9102;53.548;9.926;2023-04-16T05:13:42;8.70;99.90
17954;DHT22;9102;53.548;9.926;2023-04-16T05:16:09;8.70;99.90
17954;DHT22;9102;53.548;9.926;2023-04-16T05:18:36;8.80;99.90
17954;DHT22;9102;53.548;9.926;2023-04-16T05:21:03;8.80;99.90
17954;DHT22;9102;53.548;9.926;2023-04-16T05:23:31;8.90;99.90
17954;DHT22;9102;53.548;9.926;2023-04-16T05:25:58;8.90;99.90
17954;DHT22;9102;53.548;9.926;2023-04-16T05:28:26;9.00;99.90
17954;DHT22;9102;53.548;9.926;2023-04-16T05:30:53;9.00;99.90
17954;DHT22;9102;53.548;9.926;2023-04-16T05:33:23;8.90;99.90
17954;DHT22;9102;53.548;9.926;2023-04-16T05:35:52;9.00;99.90
17954;DHT22;9102;53.548;9.926;2023-04-16T05:38:21;8.90;99.90
17954;DHT22;9102;53.548;9.926;2023-04-16T05:40:49;9.00;99.90
17954;DHT22;9102;53.548;9.926;2023-04-16T05:43:19;9.00;99.90
17954;DHT22;9102;53.548;9.926;2023-04-16T05:45:48;9.10;99.90
17954;DHT22;9102;53.548;9.926;2023-04-16T05:48:19;9.10;99.90
17954;DHT22;9102;53.548;9.926;2023-04-16T05:50:46;9.00;99.90
17954;DHT22;9102;53.548;9.926;2023-04-16T05:53:13;9.00;99.90
17954;DHT22;9102;53.548;9.926;2023-04-16T05:55:40;9.10;99.90
17954;DHT22;9102;53.548;9.926;2023-04-16T05:58:09;9.00;99.90
17954;DHT22;9102;53.548;9.926;2023-04-16T06:00:36;9.00;99.90
17954;DHT22;9102;53.548;9.926;2023-04-16T06:03:03;9.00;99.90
17954;DHT22;9102;53.548;9.926;2023-04-16T06:05:30;9.10;99.90
17954;DHT22;9102;53.548;9.926;2023-04-16T06:07:57;9.10;99.90
17954;DHT22;9102;53.548;9.926;2023-04-16T06:10:24;9.10;99.90
17954;DHT22;9102;53.548;9.926;2023-04-16T06:12:51;9.10;99.90
17954;DHT22;9102;53.548;9.926;2023-04-16T06:15:19;9.20;99.90
17954;DHT22;9102;53.548;9.926;2023-04-16T06:17:46;9.20;99.90
17954;DHT22;9102;53.548;9.926;2023-04-16T06:20:13;9.30;99.90
17954;DHT22;9102;53.548;9.926;2023-04-16T06:22:40;9.30;99.90
17954;DHT22;9102;53.548;9.926;2023-04-16T06:25:08;9.30;99.90
17954;DHT22;9102;53.548;9.926;2023-04-16T06:27:36;9.30;99.90
17954;DHT22;9102;53.548;9.926;2023-04-16T06:30:04;9.30;99.90
17954;DHT22;9102;53.548;9.926;2023-04-16T06:32:33;9.30;99.90
17954;DHT22;9102;53.548;9.926;2023-04-16T06:35:00;9.30;99.90
17954;DHT22;9102;53.548;9.926;2023-04-16T06:37:26;9.30;99.90
17954;DHT22;9102;53.548;9.926;2023-04-16T06:39:53;9.30;99.90
17954;DHT22;9102;53.548;9.926;2023-04-16T06:42:20;9.40;99.90
17954;DHT22;9102;53.548;9.926;2023-04-16T06:44:47;9.40;99.90
17954;DHT22;9102;53.548;9.926;2023-04-16T06:47:14;9.40;99.90
17954;DHT22;9102;53.548;9.926;2023-04-16T06:49:43;9.40;99.90
17954;DHT22;9102;53.548;9.926;2023-04-16T06:52:10;9.40;99.90
17954;DHT22;9102;53.548;9.926;2023-04-16T06:54:37;9.30;99.90
17954;DHT22;9102;53.548;9.926;2023-04-16T06:57:04;9.30;99.90
17954;DHT22;9102;53.548;9.926;2023-04-16T06:59:31;9.40;99.90
17954;DHT22;9102;53.548;9.926;2023-04-16T07:01:59;9.40;99.90
17954;DHT22;9102;53.548;9.926;2023-04-16T07:04:25;9.40;99.90
17954;DHT22;9102;53.548;9.926;2023-04-16T07:06:53;9.40;99.90
17954;DHT22;9102;53.548;9.926;2023-04-16T07:09:20;9.50;99.90
17954;DHT22;9102;53.548;9.926;2023-04-16T07:11:47;9.50;99.90
17954;DHT22;9102;53.548;9.926;2023-04-16T07:14:14;9.50;99.90
17954;DHT22;9102;53.548;9.926;2023-04-16T07:16:41;9.50;99.90
17954;DHT22;9102;53.548;9.926;2023-04-16T07:19:08;9.50;99.90
17954;DHT22;9102;53.548;9.926;2023-04-16T07:21:35;9.60;99.90
17954;DHT22;9102;53.548;9.926;2023-04-16T07:24:03;9.60;99.90
17954;DHT22;9102;53.548;9.926;2023-04-16T07:26:30;9.60;99.90
17954;DHT22;9102;53.548;9.926;2023-04-16T07:28:57;9.70;99.90
17954;DHT22;9102;53.548;9.926;2023-04-16T07:31:24;9.80;99.90
17954;DHT22;9102;53.548;9.926;2023-04-16T07:33:51;9.80;99.90
17954;DHT22;9102;53.548;9.926;2023-04-16T07:36:17;9.80;99.90
17954;DHT22;9102;53.548;9.926;2023-04-16T07:38:44;9.90;99.90
17954;DHT22;9102;53.548;9.926;2023-04-16T07:41:13;10.00;99.90
17954;DHT22;9102;53.548;9.926;2023-04-16T07:43:40;10.00;99.90
17954;DHT22;9102;53.548;9.926;2023-04-16T07:46:07;10.00;99.90
17954;DHT22;9102;53.548;9.926;2023-04-16T07:48:34;10.10;99.90
17954;DHT22;9102;53.548;9.926;2023-04-16T07:51:00;10.00;99.90
17954;DHT22;9102;53.548;9.926;2023-04-16T07:53:27;10.00;99.90
17954;DHT22;9102;53.548;9.926;2023-04-16T07:55:54;10.00;99.90
17954;DHT22;9102;53.548;9.926;2023-04-16T07:58:24;10.00;99.90
17954;DHT22;9102;53.548;9.926;2023-04-16T08:00:51;10.00;99.90
17954;DHT22;9102;53.548;9.926;2023-04-16T08:03:17;10.00;99.90
17954;DHT22;9102;53.548;9.926;2023-04-16T08:05:44;10.00;99.90
17954;DHT22;9102;53.548;9.926;2023-04-16T08:08:11;10.00;99.90
17954;DHT22;9102;53.548;9.926;2023-04-16T08:10:38;10.10;99.90
17954;DHT22;9102;53.548;9.926;2023-04-16T08:13:05;10.20;99.90
17954;DHT22;9102;53.548;9.926;2023-04-16T08:15:33;10.20;99.90
17954;DHT22;9102;53.548;9.926;2023-04-16T08:18:00;10.30;99.90
17954;DHT22;9102;53.548;9.926;2023-04-16T08:20:27;10.30;99.90
17954;DHT22;9102;53.548;9.926;2023-04-16T08:22:54;10.40;99.90
17954;DHT22;9102;53.548;9.926;2023-04-16T08:25:21;10.40;99.90
17954;DHT22;9102;53.548;9.926;2023-04-16T08:27:49;10.60;99.90
17954;DHT22;9102;53.548;9.926;2023-04-16T08:30:16;10.80;99.90
17954;DHT22;9102;53.548;9.926;2023-04-16T08:32:44;10.70;99.90
17954;DHT22;9102;53.548;9.926;2023-04-16T08:35:11;10.70;99.90
17954;DHT22;9102;53.548;9.926;2023-04-16T08:37:38;10.70;99.90
17954;DHT22;9102;53.548;9.926;2023-04-16T08:40:06;10.80;99.90
17954;DHT22;9102;53.548;9.926;2023-04-16T08:42:36;10.80;99.90
17954;DHT22;9102;53.548;9.926;2023-04-16T08:45:07;11.00;99.90
17954;DHT22;9102;53.548;9.926;2023-04-16T08:47:34;10.90;99.90
17954;DHT22;9102;53.548;9.926;2023-04-16T08:50:22;10.90;99.90
17954;DHT22;9102;53.548;9.926;2023-04-16T08:52:56;10.90;99.90
17954;DHT22;9102;53.548;9.926;2023-04-16T08:55:29;11.10;99.90
17954;DHT22;9102;53.548;9.926;2023-04-16T08:57:58;11.10;99.90
17954;DHT22;9102;53.548;9.926;2023-04-16T09:00:26;11.10;99.90
17954;DHT22;9102;53.548;9.926;2023-04-16T09:02:54;11.20;99.90
17954;DHT22;9102;53.548;9.926;2023-04-16T09:05:22;11.30;99.90
17954;DHT22;9102;53.548;9.926;2023-04-16T09:07:52;11.40;99.90
17954;DHT22;9102;53.548;9.926;2023-04-16T09:10:19;11.60;99.90
17954;DHT22;9102;53.548;9.926;2023-04-16T09:12:46;11.60;99.90
17954;DHT22;9102;53.548;9.926;2023-04-16T09:15:13;11.60;99.90
17954;DHT22;9102;53.548;9.926;2023-04-16T09:17:40;11.70;99.90
17954;DHT22;9102;53.548;9.926;2023-04-16T09:20:08;11.50;99.90
17954;DHT22;9102;53.548;9.926;2023-04-16T09:22:43;11.50;99.90
17954;DHT22;9102;53.548;9.926;2023-04-16T09:25:11;11.40;99.90
17954;DHT22;9102;53.548;9.926;2023-04-16T09:27:40;11.50;99.90
17954;DHT22;9102;53.548;9.926;2023-04-16T09:30:21;11.50;99.90
17954;DHT22;9102;53.548;9.926;2023-04-16T09:32:48;11.30;99.90
17954;DHT22;9102;53.548;9.926;2023-04-16T09:35:17;11.30;99.90
17954;DHT22;9102;53.548;9.926;2023-04-16T09:37:54;11.30;99.90
17954;DHT22;9102;53.548;9.926;2023-04-16T09:40:24;11.50;99.90
17954;DHT22;9102;53.548;9.926;2023-04-16T09:42:52;11.60;99.90
17954;DHT22;9102;53.548;9.926;2023-04-16T09:45:22;11.70;99.90
17954;DHT22;9102;53.548;9.926;2023-04-16T09:47:49;11.80;99.90
17954;DHT22;9102;53.548;9.926;2023-04-16T09:50:17;11.80;99.90
17954;DHT22;9102;53.548;9.926;2023-04-16T09:52:48;11.80;99.90
17954;DHT22;9102;53.548;9.926;2023-04-16T09:55:15;11.60;99.90
17954;DHT22;9102;53.548;9.926;2023-04-16T09:57:57;11.50;99.90
17954;DHT22;9102;53.548;9.926;2023-04-16T10:00:24;11.30;99.90
17954;DHT22;9102;53.548;9.926;2023-04-16T10:03:02;11.30;99.90
17954;DHT22;9102;53.548;9.926;2023-04-16T10:05:29;11.30;99.90
17954;DHT22;9102;53.548;9.926;2023-04-16T10:08:00;11.40;99.90
17954;DHT22;9102;53.548;9.926;2023-04-16T10:10:27;11.50;99.90
17954;DHT22;9102;53.548;9.926;2023-04-16T10:12:54;11.50;99.90
17954;DHT22;9102;53.548;9.926;2023-04-16T10:15:22;11.60;99.90
17954;DHT22;9102;53.548;9.926;2023-04-16T10:17:52;11.90;99.90
17954;DHT22;9102;53.548;9.926;2023-04-16T10:20:19;11.80;99.90
17954;DHT22;9102;53.548;9.926;2023-04-16T10:22:47;11.80;99.90
17954;DHT22;9102;53.548;9.926;2023-04-16T10:25:15;11.80;99.90
17954;DHT22;9102;53.548;9.926;2023-04-16T10:27:43;11.90;99.90
17954;DHT22;9102;53.548;9.926;2023-04-16T10:30:12;11.90;99.90
17954;DHT22;9102;53.548;9.926;2023-04-16T10:32:41;11.80;99.90
17954;DHT22;9102;53.548;9.926;2023-04-16T10:35:14;11.80;99.90
17954;DHT22;9102;53.548;9.926;2023-04-16T10:37:41;11.70;99.90
17954;DHT22;9102;53.548;9.926;2023-04-16T10:40:26;11.60;99.90
17954;DHT22;9102;53.548;9.926;2023-04-16T10:42:57;11.60;99.90
17954;DHT22;9102;53.548;9.926;2023-04-16T10:45:37;11.50;99.90
17954;DHT22;9102;53.548;9.926;2023-04-16T10:48:06;11.60;99.90
17954;DHT22;9102;53.548;9.926;2023-04-16T10:50:34;11.60;99.90
17954;DHT22;9102;53.548;9.926;2023-04-16T10:53:18;11.60;99.90
17954;DHT22;9102;53.548;9.926;2023-04-16T10:56:09;11.60;99.90
17954;DHT22;9102;53.548;9.926;2023-04-16T10:58:38;11.50;99.90
17954;DHT22;9102;53.548;9.926;2023-04-16T11:01:11;11.60;99.90
17954;DHT22;9102;53.548;9.926;2023-04-16T11:03:45;11.60;99.90
17954;DHT22;9102;53.548;9.926;2023-04-16T11:06:14;11.60;99.90
17954;DHT22;9102;53.548;9.926;2023-04-16T11:08:43;11.70;99.90
17954;DHT22;9102;53.548;9.926;2023-04-16T11:11:13;11.60;99.90
17954;DHT22;9102;53.548;9.926;2023-04-16T11:13:42;11.60;99.90
17954;DHT22;9102;53.548;9.926;2023-04-16T11:16:10;11.70;99.90
17954;DHT22;9102;53.548;9.926;2023-04-16T11:18:38;11.70;99.90
17954;DHT22;9102;53.548;9.926;2023-04-16T11:21:07;11.60;99.90
17954;DHT22;9102;53.548;9.926;2023-04-16T11:23:47;11.60;99.90
17954;DHT22;9102;53.548;9.926;2023-04-16T11:26:28;11.70;99.90
17954;DHT22;9102;53.548;9.926;2023-04-16T11:28:55;11.70;99.90
17954;DHT22;9102;53.548;9.926;2023-04-16T11:31:23;11.50;99.90
17954;DHT22;9102;53.548;9.926;2023-04-16T11:33:51;11.40;99.90
17954;DHT22;9102;53.548;9.926;2023-04-16T11:36:18;11.40;99.90
17954;DHT22;9102;53.548;9.926;2023-04-16T11:38:46;11.40;99.90
17954;DHT22;9102;53.548;9.926;2023-04-16T11:41:18;11.40;99.90
17954;DHT22;9102;53.548;9.926;2023-04-16T11:43:47;11.40;99.90
17954;DHT22;9102;53.548;9.926;2023-04-16T11:46:14;11.50;99.90
17954;DHT22;9102;53.548;9.926;2023-04-16T11:48:48;11.50;99.90
17954;DHT22;9102;53.548;9.926;2023-04-16T11:51:15;11.60;99.90
17954;DHT22;9102;53.548;9.926;2023-04-16T11:53:46;11.60;99.90
17954;DHT22;9102;53.548;9.926;2023-04-16T11:56:13;11.50;99.90
17954;DHT22;9102;53.548;9.926;2023-04-16T11:58:42;11.50;99.90
17954;DHT22;9102;53.548;9.926;2023-04-16T12:01:10;11.60;99.90
17954;DHT22;9102;53.548;9.926;2023-04-16T12:03:39;11.70;99.90
17954;DHT22;9102;53.548;9.926;2023-04-16T12:06:11;11.70;99.90
17954;DHT22;9102;53.548;9.926;2023-04-16T12:08:39;11.70;99.90
17954;DHT22;9102;53.548;9.926;2023-04-16T12:11:06;11.70;99.90
17954;DHT22;9102;53.548;9.926;2023-04-16T12:13:36;11.80;99.90
17954;DHT22;9102;53.548;9.926;2023-04-16T12:16:18;11.70;99.90
17954;DHT22;9102;53.548;9.926;2023-04-16T12:19:00;11.60;99.90
17954;DHT22;9102;53.548;9.926;2023-04-16T12:21:38;11.60;99.90
17954;DHT22;9102;53.548;9.926;2023-04-16T12:24:09;11.90;99.90
17954;DHT22;9102;53.548;9.926;2023-04-16T12:26:41;11.80;99.90
17954;DHT22;9102;53.548;9.926;2023-04-16T12:29:22;11.90;99.90
17954;DHT22;9102;53.548;9.926;2023-04-16T12:31:54;11.80;99.90
17954;DHT22;9102;53.548;9.926;2023-04-16T12:34:23;11.70;99.90
17954;DHT22;9102;53.548;9.926;2023-04-16T12:37:06;11.70;99.90
17954;DHT22;9102;53.548;9.926;2023-04-16T12:39:36;11.70;99.90
17954;DHT22;9102;53.548;9.926;2023-04-16T12:42:03;11.60;99.90
17954;DHT22;9102;53.548;9.926;2023-04-16T12:44:34;11.50;99.90
17954;DHT22;9102;53.548;9.926;2023-04-16T12:47:05;11.50;99.90
17954;DHT22;9102;53.548;9.926;2023-04-16T12:49:32;11.50;99.90
17954;DHT22;9102;53.548;9.926;2023-04-16T12:52:01;11.50;99.90
17954;DHT22;9102;53.548;9.926;2023-04-16T12:54:31;11.50;99.90
17954;DHT22;9102;53.548;9.926;2023-04-16T12:56:58;11.50;99.90
17954;DHT22;9102;53.548;9.926;2023-04-16T12:59:27;11.50;99.90
17954;DHT22;9102;53.548;9.926;2023-04-16T13:01:54;11.70;99.90
17954;DHT22;9102;53.548;9.926;2023-04-16T13:04:25;11.70;99.90
17954;DHT22;9102;53.548;9.926;2023-04-16T13:06:52;11.70;99.90
17954;DHT22;9102;53.548;9.926;2023-04-16T13:09:21;11.60;99.90
17954;DHT22;9102;53.548;9.926;2023-04-16T13:11:52;11.60;99.90
17954;DHT22;9102;53.548;9.926;2023-04-16T13:14:19;11.60;99.90
17954;DHT22;9102;53.548;9.926;2023-04-16T13:16:56;11.80;99.90
17954;DHT22;9102;53.548;9.926;2023-04-16T13:19:28;11.70;99.90
17954;DHT22;9102;53.548;9.926;2023-04-16T13:21:55;11.80;99.90
17954;DHT22;9102;53.548;9.926;2023-04-16T13:24:25;12.00;99.90
17954;DHT22;9102;53.548;9.926;2023-04-16T13:26:52;11.90;99.90
17954;DHT22;9102;53.548;9.926;2023-04-16T13:29:21;11.70;99.90
17954;DHT22;9102;53.548;9.926;2023-04-16T13:31:48;11.70;99.90
17954;DHT22;9102;53.548;9.926;2023-04-16T13:34:17;11.60;99.90
17954;DHT22;9102;53.548;9.926;2023-04-16T13:36:47;11.50;99.90
17954;DHT22;9102;53.548;9.926;2023-04-16T13:39:14;11.60;99.90
17954;DHT22;9102;53.548;9.926;2023-04-16T13:41:42;11.60;99.90
17954;DHT22;9102;53.548;9.926;2023-04-16T13:44:09;11.60;99.90
17954;DHT22;9102;53.548;9.926;2023-04-16T13:46:36;11.50;99.90
17954;DHT22;9102;53.548;9.926;2023-04-16T13:49:07;11.60;99.90
17954;DHT22;9102;53.548;9.926;2023-04-16T13:51:37;11.60;99.90
17954;DHT22;9102;53.548;9.926;2023-04-16T13:54:07;11.60;99.90
17954;DHT22;9102;53.548;9.926;2023-04-16T13:56:34;11.50;99.90
17954;DHT22;9102;53.548;9.926;2023-04-16T13:59:02;11.50;99.90
17954;DHT22;9102;53.548;9.926;2023-04-16T14:01:29;11.40;99.90
17954;DHT22;9102;53.548;9.926;2023-04-16T14:04:00;11.40;99.90
17954;DHT22;9102;53.548;9.926;2023-04-16T14:06:33;11.40;99.90
17954;DHT22;9102;53.548;9.926;2023-04-16T14:09:00;11.50;99.90
17954;DHT22;9102;53.548;9.926;2023-04-16T14:11:31;11.50;99.90
17954;DHT22;9102;53.548;9.926;2023-04-16T14:14:00;11.50;99.90
17954;DHT22;9102;53.548;9.926;2023-04-16T14:16:27;11.50;99.90
17954;DHT22;9102;53.548;9.926;2023-04-16T14:18:57;11.60;99.90
17954;DHT22;9102;53.548;9.926;2023-04-16T14:21:24;11.50;99.90
17954;DHT22;9102;53.548;9.926;2023-04-16T14:23:53;11.60;99.90
17954;DHT22;9102;53.548;9.926;2023-04-16T14:26:20;11.70;99.90
17954;DHT22;9102;53.548;9.926;2023-04-16T14:28:50;11.70;99.90
17954;DHT22;9102;53.548;9.926;2023-04-16T14:31:20;11.70;99.90
17954;DHT22;9102;53.548;9.926;2023-04-16T14:33:46;11.70;99.90
17954;DHT22;9102;53.548;9.926;2023-04-16T14:36:13;11.70;99.90
17954;DHT22;9102;53.548;9.926;2023-04-16T14:38:40;11.80;99.90
17954;DHT22;9102;53.548;9.926;2023-04-16T14:41:08;11.80;99.90
17954;DHT22;9102;53.548;9.926;2023-04-16T14:43:36;11.80;99.90
17954;DHT22;9102;53.548;9.926;2023-04-16T14:46:05;11.90;99.90
17954;DHT22;9102;53.548;9.926;2023-04-16T14:48:32;11.90;99.90
17954;DHT22;9102;53.548;9.926;2023-04-16T14:50:59;11.80;99.90
17954;DHT22;9102;53.548;9.926;2023-04-16T14:53:26;11.70;99.90
17954;DHT22;9102;53.548;9.926;2023-04-16T14:55:53;11.80;99.90
17954;DHT22;9102;53.548;9.926;2023-04-16T14:58:22;11.80;99.90
17954;DHT22;9102;53.548;9.926;2023-04-16T15:00:49;11.80;99.90
17954;DHT22;9102;53.548;9.926;2023-04-16T15:03:17;12.00;99.90
17954;DHT22;9102;53.548;9.926;2023-04-16T15:05:44;12.00;99.90
17954;DHT22;9102;53.548;9.926;2023-04-16T15:08:15;11.80;99.90
17954;DHT22;9102;53.548;9.926;2023-04-16T15:10:42;11.80;99.90
17954;DHT22;9102;53.548;9.926;2023-04-16T15:13:10;11.80;99.90
17954;DHT22;9102;53.548;9.926;2023-04-16T15:15:38;11.80;99.90
17954;DHT22;9102;53.548;9.926;2023-04-16T15:18:08;11.80;99.90
17954;DHT22;9102;53.548;9.926;2023-04-16T15:20:38;11.90;99.90
17954;DHT22;9102;53.548;9.926;2023-04-16T15:23:05;12.00;99.90
17954;DHT22;9102;53.548;9.926;2023-04-16T15:25:32;11.90;99.90
17954;DHT22;9102;53.548;9.926;2023-04-16T15:27:59;11.90;99.90
17954;DHT22;9102;53.548;9.926;2023-04-16T15:30:27;11.90;99.90
17954;DHT22;9102;53.548;9.926;2023-04-16T15:32:53;11.80;99.90
17954;DHT22;9102;53.548;9.926;2023-04-16T15:35:20;11.90;99.90
17954;DHT22;9102;53.548;9.926;2023-04-16T15:37:49;12.00;99.90
17954;DHT22;9102;53.548;9.926;2023-04-16T15:40:20;11.90;99.90
17954;DHT22;9102;53.548;9.926;2023-04-16T15:42:55;12.00;99.90
17954;DHT22;9102;53.548;9.926;2023-04-16T15:45:22;12.00;99.90
17954;DHT22;9102;53.548;9.926;2023-04-16T15:47:49;12.00;99.90
17954;DHT22;9102;53.548;9.926;2023-04-16T15:50:21;11.90;99.90
17954;DHT22;9102;53.548;9.926;2023-04-16T15:52:49;11.80;99.90
17954;DHT22;9102;53.548;9.926;2023-04-16T15:55:16;11.80;99.90
17954;DHT22;9102;53.548;9.926;2023-04-16T15:57:43;11.90;99.90
17954;DHT22;9102;53.548;9.926;2023-04-16T16:00:11;11.90;99.90